Spivey, KS

6:52 PM CDT on September 21, 2014 (GMT -0500)
Weed Dept | Change Station
CLOSE
Current Station
Personal Weather Station
Location: Anthony, KS
Elevation: 1352 ft
Nearby Weather Stations

Elev 1352 ft 37.15 °N, 98.06 °W | Updated 5 minutes ago

Clear
Clear
77.7 °F
Feels Like 78 °F
N
15.0
Wind Variable Wind from NE

Today
High -- | Low -- °F
--% Chance of Precip.
Yesterday
High -- | Low -- °F
Precip. -- in
7:19 AM 7:31 PM
Waning Crescent, 5% visible
Pressure 30.23 in
Visibility 10.0 miles
Clouds Clear
Heat Index 78 °F
Dew Point 49 °F
Humidity 37%
Rainfall 0.00 in
Snow Depth Not available.
UV 1 out of 12
Pollen 5.60 out of 12
Air Quality Not available.
Flu Activity Not available.
METAR KPTT 212335Z AUTO 04007KT 10SM CLR 24/03 A3023 RMK AO2

More Conditions Fewer Conditions

Pressure 30.23 in
Visibility 10.0 miles
Clouds Clear
Heat Index 78 °F
Dew Point 49 °F
Humidity 37%
Rainfall 0.00 in
Snow Depth Not available.
UV 1 out of 12
Pollen 5.60 out of 12
Air Quality Not available.
Flu Activity Not available.
METAR KPTT 212335Z AUTO 04007KT 10SM CLR 24/03 A3023 RMK AO2

More Conditions Fewer Conditions

10-Day Weather Forecast

Almanac

Astronomy

Sep. 21, 2014 Rise Set
Actual Time 7:19 AM CDT 7:31 PM CDT
Civil Twilight 6:53 AM CDT 7:57 PM CDT
Nautical Twilight 6:23 AM CDT 8:27 PM CDT
Astronomical Twilight 5:52 AM CDT 8:58 PM CDT
Moon 4:57 AM CDT 6:06 PM CDT
Length of Visible Light 13h 03m
Length of Day
12h 11m
Tomorrow will be 2m 23s shorter.
Waning Crescent, 5% of the Moon is Illuminated
Today
Waning Crescent
Sep 24
New
Oct 1
First Quarter
Oct 8
Full
Oct 15
Last Quarter

Today's Extremes

State Highs State Lows

Community

WunderPhotos

Upload Photos

1,755,293 photos uploaded!

WunderBlogs® & News

Nearby

Snow Depth

Station Depth Elevation
No new snow has been reported.

Earthquake Activity

City Distance Mag. Time & Date
Medford, Oklahoma 49 miles 3.2 2:10 AM CDT
2014-09-20
Luther, Oklahoma 135 miles 2.7 4:47 PM CDT
2014-09-19
Guthrie, Oklahoma 119 miles 3.6 12:23 PM CDT
2014-09-19
Jones, Oklahoma 138 miles 2.8 1:13 AM CDT
2014-09-19
Minimum magnitude displayed is 2.5.

Coastal Water Temperatures

Place Temperature
No Stations Reporting

Nearby Weather Stations